sensor_id;sensor_type;location;lat;lon;timestamp;P1;durP1;ratioP1;P2;durP2;ratioP2
11854;SDS011;5987;53.140;8.904;2023-09-18T00:02:19;8.03;;;7.23;;
11854;SDS011;5987;53.140;8.904;2023-09-18T00:05:23;8.43;;;6.40;;
11854;SDS011;5987;53.140;8.904;2023-09-18T00:08:28;9.57;;;7.43;;
11854;SDS011;5987;53.140;8.904;2023-09-18T00:11:32;8.80;;;7.23;;
11854;SDS011;5987;53.140;8.904;2023-09-18T00:14:37;9.63;;;7.13;;
11854;SDS011;5987;53.140;8.904;2023-09-18T00:17:41;9.57;;;7.60;;
11854;SDS011;5987;53.140;8.904;2023-09-18T00:20:44;8.03;;;7.20;;
11854;SDS011;5987;53.140;8.904;2023-09-18T00:23:51;8.07;;;7.27;;
11854;SDS011;5987;53.140;8.904;2023-09-18T00:26:55;9.60;;;8.10;;
11854;SDS011;5987;53.140;8.904;2023-09-18T00:29:59;11.63;;;8.07;;
11854;SDS011;5987;53.140;8.904;2023-09-18T00:33:03;10.07;;;7.70;;
11854;SDS011;5987;53.140;8.904;2023-09-18T00:36:07;8.87;;;7.97;;
11854;SDS011;5987;53.140;8.904;2023-09-18T00:39:12;8.90;;;7.57;;
11854;SDS011;5987;53.140;8.904;2023-09-18T00:42:17;8.50;;;7.40;;
11854;SDS011;5987;53.140;8.904;2023-09-18T00:45:20;9.63;;;8.63;;
11854;SDS011;5987;53.140;8.904;2023-09-18T00:48:24;7.80;;;6.83;;
11854;SDS011;5987;53.140;8.904;2023-09-18T00:51:29;9.73;;;8.07;;
11854;SDS011;5987;53.140;8.904;2023-09-18T00:54:36;9.47;;;8.40;;
11854;SDS011;5987;53.140;8.904;2023-09-18T00:57:43;12.97;;;8.57;;
11854;SDS011;5987;53.140;8.904;2023-09-18T01:00:47;12.70;;;8.90;;
11854;SDS011;5987;53.140;8.904;2023-09-18T01:03:53;11.23;;;7.83;;
11854;SDS011;5987;53.140;8.904;2023-09-18T01:06:57;11.27;;;7.87;;
11854;SDS011;5987;53.140;8.904;2023-09-18T01:10:04;9.50;;;8.60;;
11854;SDS011;5987;53.140;8.904;2023-09-18T01:13:11;11.30;;;8.63;;
11854;SDS011;5987;53.140;8.904;2023-09-18T01:16:22;10.40;;;7.60;;
11854;SDS011;5987;53.140;8.904;2023-09-18T01:19:38;7.57;;;6.70;;
11854;SDS011;5987;53.140;8.904;2023-09-18T01:22:45;9.20;;;6.87;;
11854;SDS011;5987;53.140;8.904;2023-09-18T01:25:50;9.27;;;6.90;;
11854;SDS011;5987;53.140;8.904;2023-09-18T01:28:54;10.13;;;7.20;;
11854;SDS011;5987;53.140;8.904;2023-09-18T01:31:57;9.90;;;7.67;;
11854;SDS011;5987;53.140;8.904;2023-09-18T01:35:02;8.37;;;7.50;;
11854;SDS011;5987;53.140;8.904;2023-09-18T01:38:11;9.73;;;7.23;;
11854;SDS011;5987;53.140;8.904;2023-09-18T01:41:15;8.60;;;7.13;;
11854;SDS011;5987;53.140;8.904;2023-09-18T01:44:19;9.20;;;7.77;;
11854;SDS011;5987;53.140;8.904;2023-09-18T01:47:23;8.57;;;7.17;;
11854;SDS011;5987;53.140;8.904;2023-09-18T01:50:28;9.60;;;7.27;;
11854;SDS011;5987;53.140;8.904;2023-09-18T01:53:34;9.77;;;7.60;;
11854;SDS011;5987;53.140;8.904;2023-09-18T01:56:38;7.23;;;6.50;;
11854;SDS011;5987;53.140;8.904;2023-09-18T01:59:41;11.13;;;7.80;;
11854;SDS011;5987;53.140;8.904;2023-09-18T02:02:48;10.07;;;7.90;;
11854;SDS011;5987;53.140;8.904;2023-09-18T02:06:12;7.80;;;6.87;;
11854;SDS011;5987;53.140;8.904;2023-09-18T02:09:17;8.00;;;6.73;;
11854;SDS011;5987;53.140;8.904;2023-09-18T02:12:21;8.87;;;7.30;;
11854;SDS011;5987;53.140;8.904;2023-09-18T02:15:25;8.73;;;6.40;;
11854;SDS011;5987;53.140;8.904;2023-09-18T02:18:28;7.83;;;6.40;;
11854;SDS011;5987;53.140;8.904;2023-09-18T02:21:32;12.00;;;9.00;;
11854;SDS011;5987;53.140;8.904;2023-09-18T02:24:37;21.17;;;14.23;;
11854;SDS011;5987;53.140;8.904;2023-09-18T02:27:41;21.90;;;14.13;;
11854;SDS011;5987;53.140;8.904;2023-09-18T02:30:45;18.63;;;12.93;;
11854;SDS011;5987;53.140;8.904;2023-09-18T02:33:48;13.27;;;9.17;;
11854;SDS011;5987;53.140;8.904;2023-09-18T02:36:52;11.87;;;8.30;;
11854;SDS011;5987;53.140;8.904;2023-09-18T02:39:57;9.20;;;7.60;;
11854;SDS011;5987;53.140;8.904;2023-09-18T02:43:01;9.13;;;7.13;;
11854;SDS011;5987;53.140;8.904;2023-09-18T02:46:05;8.50;;;6.90;;
11854;SDS011;5987;53.140;8.904;2023-09-18T02:49:09;8.23;;;7.33;;
11854;SDS011;5987;53.140;8.904;2023-09-18T02:52:13;15.20;;;9.90;;
11854;SDS011;5987;53.140;8.904;2023-09-18T02:55:18;16.30;;;11.67;;
11854;SDS011;5987;53.140;8.904;2023-09-18T02:58:22;12.87;;;11.50;;
11854;SDS011;5987;53.140;8.904;2023-09-18T03:01:29;14.33;;;11.07;;
11854;SDS011;5987;53.140;8.904;2023-09-18T03:04:33;11.37;;;8.90;;
11854;SDS011;5987;53.140;8.904;2023-09-18T03:07:37;10.53;;;8.63;;
11854;SDS011;5987;53.140;8.904;2023-09-18T03:10:42;11.90;;;7.73;;
11854;SDS011;5987;53.140;8.904;2023-09-18T03:13:46;9.37;;;7.37;;
11854;SDS011;5987;53.140;8.904;2023-09-18T03:16:50;9.77;;;7.20;;
11854;SDS011;5987;53.140;8.904;2023-09-18T03:19:54;7.77;;;6.67;;
11854;SDS011;5987;53.140;8.904;2023-09-18T03:22:59;9.87;;;8.47;;
11854;SDS011;5987;53.140;8.904;2023-09-18T03:26:06;11.87;;;8.50;;
11854;SDS011;5987;53.140;8.904;2023-09-18T03:29:10;8.37;;;7.57;;
11854;SDS011;5987;53.140;8.904;2023-09-18T03:32:14;8.10;;;7.27;;
11854;SDS011;5987;53.140;8.904;2023-09-18T03:35:17;9.43;;;6.33;;
11854;SDS011;5987;53.140;8.904;2023-09-18T03:38:22;10.23;;;7.20;;
11854;SDS011;5987;53.140;8.904;2023-09-18T03:41:27;8.77;;;6.70;;
11854;SDS011;5987;53.140;8.904;2023-09-18T03:44:35;9.00;;;8.10;;
11854;SDS011;5987;53.140;8.904;2023-09-18T03:47:40;10.27;;;8.43;;
11854;SDS011;5987;53.140;8.904;2023-09-18T03:50:44;8.67;;;7.43;;
11854;SDS011;5987;53.140;8.904;2023-09-18T03:53:50;8.97;;;6.63;;
11854;SDS011;5987;53.140;8.904;2023-09-18T03:56:55;8.43;;;7.57;;
11854;SDS011;5987;53.140;8.904;2023-09-18T03:59:58;8.50;;;6.60;;
11854;SDS011;5987;53.140;8.904;2023-09-18T04:03:02;8.00;;;7.20;;
11854;SDS011;5987;53.140;8.904;2023-09-18T04:06:06;9.00;;;8.10;;
11854;SDS011;5987;53.140;8.904;2023-09-18T04:09:10;9.63;;;8.30;;
11854;SDS011;5987;53.140;8.904;2023-09-18T04:12:15;8.40;;;6.40;;
11854;SDS011;5987;53.140;8.904;2023-09-18T04:15:25;8.07;;;6.60;;
11854;SDS011;5987;53.140;8.904;2023-09-18T04:18:32;8.33;;;6.50;;
11854;SDS011;5987;53.140;8.904;2023-09-18T04:21:35;9.63;;;6.40;;
11854;SDS011;5987;53.140;8.904;2023-09-18T04:24:39;7.00;;;5.90;;
11854;SDS011;5987;53.140;8.904;2023-09-18T04:27:44;9.87;;;6.33;;
11854;SDS011;5987;53.140;8.904;2023-09-18T04:30:48;9.07;;;8.17;;
11854;SDS011;5987;53.140;8.904;2023-09-18T04:33:52;8.83;;;7.10;;
11854;SDS011;5987;53.140;8.904;2023-09-18T04:36:56;10.33;;;7.23;;
11854;SDS011;5987;53.140;8.904;2023-09-18T04:39:59;6.80;;;6.10;;
11854;SDS011;5987;53.140;8.904;2023-09-18T04:43:06;11.13;;;6.47;;
11854;SDS011;5987;53.140;8.904;2023-09-18T04:46:10;8.20;;;7.40;;
11854;SDS011;5987;53.140;8.904;2023-09-18T04:49:14;7.83;;;6.97;;
11854;SDS011;5987;53.140;8.904;2023-09-18T04:52:18;8.70;;;6.90;;
11854;SDS011;5987;53.140;8.904;2023-09-18T04:55:22;9.57;;;7.17;;
11854;SDS011;5987;53.140;8.904;2023-09-18T04:58:27;6.97;;;6.17;;
11854;SDS011;5987;53.140;8.904;2023-09-18T05:01:31;8.47;;;7.03;;
11854;SDS011;5987;53.140;8.904;2023-09-18T05:04:34;9.20;;;6.40;;
11854;SDS011;5987;53.140;8.904;2023-09-18T05:07:38;7.50;;;6.37;;
11854;SDS011;5987;53.140;8.904;2023-09-18T05:10:42;7.17;;;5.23;;
11854;SDS011;5987;53.140;8.904;2023-09-18T05:13:47;6.37;;;5.77;;
11854;SDS011;5987;53.140;8.904;2023-09-18T05:16:51;7.60;;;5.87;;
11854;SDS011;5987;53.140;8.904;2023-09-18T05:19:55;6.90;;;6.20;;
11854;SDS011;5987;53.140;8.904;2023-09-18T05:22:58;8.13;;;5.17;;
11854;SDS011;5987;53.140;8.904;2023-09-18T05:26:03;7.87;;;5.53;;
11854;SDS011;5987;53.140;8.904;2023-09-18T05:29:08;5.90;;;5.30;;
11854;SDS011;5987;53.140;8.904;2023-09-18T05:32:12;7.43;;;5.77;;
11854;SDS011;5987;53.140;8.904;2023-09-18T05:35:16;7.90;;;5.73;;
11854;SDS011;5987;53.140;8.904;2023-09-18T05:38:20;9.13;;;5.70;;
11854;SDS011;5987;53.140;8.904;2023-09-18T05:41:24;5.27;;;4.77;;
11854;SDS011;5987;53.140;8.904;2023-09-18T05:44:32;9.53;;;6.50;;
11854;SDS011;5987;53.140;8.904;2023-09-18T05:47:35;6.47;;;5.30;;
11854;SDS011;5987;53.140;8.904;2023-09-18T05:50:40;5.33;;;4.83;;
11854;SDS011;5987;53.140;8.904;2023-09-18T05:53:44;5.93;;;4.73;;
11854;SDS011;5987;53.140;8.904;2023-09-18T05:56:47;7.10;;;4.87;;
11854;SDS011;5987;53.140;8.904;2023-09-18T05:59:53;6.73;;;4.43;;
11854;SDS011;5987;53.140;8.904;2023-09-18T06:02:58;4.50;;;4.07;;
11854;SDS011;5987;53.140;8.904;2023-09-18T06:06:02;6.23;;;5.07;;
11854;SDS011;5987;53.140;8.904;2023-09-18T06:09:06;7.47;;;5.37;;
11854;SDS011;5987;53.140;8.904;2023-09-18T06:12:10;5.83;;;5.23;;
11854;SDS011;5987;53.140;8.904;2023-09-18T06:15:26;7.90;;;5.23;;
11854;SDS011;5987;53.140;8.904;2023-09-18T06:18:30;6.60;;;5.67;;
11854;SDS011;5987;53.140;8.904;2023-09-18T06:21:34;9.40;;;5.70;;
11854;SDS011;5987;53.140;8.904;2023-09-18T06:24:37;7.13;;;4.90;;
11854;SDS011;5987;53.140;8.904;2023-09-18T06:27:41;6.03;;;4.93;;
11854;SDS011;5987;53.140;8.904;2023-09-18T06:30:46;5.90;;;5.27;;
11854;SDS011;5987;53.140;8.904;2023-09-18T06:33:50;6.50;;;5.50;;
11854;SDS011;5987;53.140;8.904;2023-09-18T06:36:54;8.20;;;5.73;;
11854;SDS011;5987;53.140;8.904;2023-09-18T06:39:57;7.80;;;5.40;;
11854;SDS011;5987;53.140;8.904;2023-09-18T06:43:04;6.97;;;4.90;;
11854;SDS011;5987;53.140;8.904;2023-09-18T06:46:09;9.33;;;5.67;;
11854;SDS011;5987;53.140;8.904;2023-09-18T06:49:13;8.23;;;5.53;;
11854;SDS011;5987;53.140;8.904;2023-09-18T06:52:17;6.73;;;4.77;;
11854;SDS011;5987;53.140;8.904;2023-09-18T06:55:20;5.03;;;4.20;;
11854;SDS011;5987;53.140;8.904;2023-09-18T06:58:24;8.33;;;4.40;;
11854;SDS011;5987;53.140;8.904;2023-09-18T07:01:29;6.37;;;4.80;;
11854;SDS011;5987;53.140;8.904;2023-09-18T07:04:34;5.67;;;3.80;;
11854;SDS011;5987;53.140;8.904;2023-09-18T07:07:38;4.63;;;3.90;;
11854;SDS011;5987;53.140;8.904;2023-09-18T07:10:42;5.20;;;4.37;;
11854;SDS011;5987;53.140;8.904;2023-09-18T07:13:47;5.67;;;4.60;;
11854;SDS011;5987;53.140;8.904;2023-09-18T07:16:53;6.73;;;4.70;;
11854;SDS011;5987;53.140;8.904;2023-09-18T07:19:57;6.30;;;4.60;;
11854;SDS011;5987;53.140;8.904;2023-09-18T07:23:02;9.53;;;5.30;;
11854;SDS011;5987;53.140;8.904;2023-09-18T07:26:06;6.53;;;5.00;;
11854;SDS011;5987;53.140;8.904;2023-09-18T07:29:10;5.50;;;4.50;;
11854;SDS011;5987;53.140;8.904;2023-09-18T07:32:16;5.97;;;4.90;;
11854;SDS011;5987;53.140;8.904;2023-09-18T07:35:38;6.97;;;4.50;;
11854;SDS011;5987;53.140;8.904;2023-09-18T07:38:42;6.90;;;6.13;;
11854;SDS011;5987;53.140;8.904;2023-09-18T07:41:46;5.47;;;4.97;;
11854;SDS011;5987;53.140;8.904;2023-09-18T07:44:50;7.37;;;4.63;;
11854;SDS011;5987;53.140;8.904;2023-09-18T07:47:55;6.63;;;4.80;;
11854;SDS011;5987;53.140;8.904;2023-09-18T07:50:59;7.03;;;4.90;;
11854;SDS011;5987;53.140;8.904;2023-09-18T07:54:03;7.00;;;5.50;;
11854;SDS011;5987;53.140;8.904;2023-09-18T07:57:07;6.63;;;5.57;;
11854;SDS011;5987;53.140;8.904;2023-09-18T08:00:11;8.20;;;6.40;;
11854;SDS011;5987;53.140;8.904;2023-09-18T08:03:18;9.83;;;5.40;;
11854;SDS011;5987;53.140;8.904;2023-09-18T08:06:24;6.13;;;5.07;;
11854;SDS011;5987;53.140;8.904;2023-09-18T08:09:27;7.17;;;5.73;;
11854;SDS011;5987;53.140;8.904;2023-09-18T08:12:31;9.43;;;5.73;;
11854;SDS011;5987;53.140;8.904;2023-09-18T08:15:35;6.27;;;5.10;;
11854;SDS011;5987;53.140;8.904;2023-09-18T08:18:41;6.47;;;5.10;;
11854;SDS011;5987;53.140;8.904;2023-09-18T08:21:45;13.87;;;5.50;;
11854;SDS011;5987;53.140;8.904;2023-09-18T08:24:49;7.13;;;4.77;;
11854;SDS011;5987;53.140;8.904;2023-09-18T08:27:54;8.30;;;5.20;;
11854;SDS011;5987;53.140;8.904;2023-09-18T08:30:58;7.07;;;4.97;;
11854;SDS011;5987;53.140;8.904;2023-09-18T08:34:04;8.97;;;5.37;;
11854;SDS011;5987;53.140;8.904;2023-09-18T08:37:08;5.33;;;4.83;;
11854;SDS011;5987;53.140;8.904;2023-09-18T08:40:12;7.60;;;4.97;;
11854;SDS011;5987;53.140;8.904;2023-09-18T08:43:18;5.37;;;4.33;;
11854;SDS011;5987;53.140;8.904;2023-09-18T08:46:22;6.57;;;5.00;;
11854;SDS011;5987;53.140;8.904;2023-09-18T08:49:48;5.87;;;5.00;;
11854;SDS011;5987;53.140;8.904;2023-09-18T08:52:54;6.73;;;5.30;;
11854;SDS011;5987;53.140;8.904;2023-09-18T08:55:59;6.67;;;4.77;;
11854;SDS011;5987;53.140;8.904;2023-09-18T08:59:04;7.30;;;4.40;;
11854;SDS011;5987;53.140;8.904;2023-09-18T09:02:08;11.63;;;5.03;;
11854;SDS011;5987;53.140;8.904;2023-09-18T09:05:34;7.00;;;4.10;;
11854;SDS011;5987;53.140;8.904;2023-09-18T09:08:38;8.10;;;4.60;;
11854;SDS011;5987;53.140;8.904;2023-09-18T09:11:47;10.37;;;4.17;;
11854;SDS011;5987;53.140;8.904;2023-09-18T09:15:01;8.10;;;4.37;;
11854;SDS011;5987;53.140;8.904;2023-09-18T09:18:07;6.93;;;4.30;;
11854;SDS011;5987;53.140;8.904;2023-09-18T09:21:13;4.73;;;3.73;;
11854;SDS011;5987;53.140;8.904;2023-09-18T09:24:17;6.77;;;4.60;;
11854;SDS011;5987;53.140;8.904;2023-09-18T09:27:42;6.63;;;4.57;;
11854;SDS011;5987;53.140;8.904;2023-09-18T09:30:46;7.20;;;4.30;;
11854;SDS011;5987;53.140;8.904;2023-09-18T09:33:50;7.10;;;3.90;;
11854;SDS011;5987;53.140;8.904;2023-09-18T09:36:56;7.83;;;3.83;;
11854;SDS011;5987;53.140;8.904;2023-09-18T09:40:03;6.90;;;3.93;;
11854;SDS011;5987;53.140;8.904;2023-09-18T09:43:11;5.93;;;3.23;;
11854;SDS011;5987;53.140;8.904;2023-09-18T09:46:17;7.17;;;3.13;;
11854;SDS011;5987;53.140;8.904;2023-09-18T09:49:23;2.63;;;2.43;;
11854;SDS011;5987;53.140;8.904;2023-09-18T09:52:30;2.87;;;2.50;;
11854;SDS011;5987;53.140;8.904;2023-09-18T09:55:36;3.60;;;2.63;;
11854;SDS011;5987;53.140;8.904;2023-09-18T09:59:02;5.87;;;3.03;;
11854;SDS011;5987;53.140;8.904;2023-09-18T10:02:10;5.83;;;2.77;;
11854;SDS011;5987;53.140;8.904;2023-09-18T10:05:21;5.23;;;2.43;;
11854;SDS011;5987;53.140;8.904;2023-09-18T10:08:32;7.70;;;3.10;;
11854;SDS011;5987;53.140;8.904;2023-09-18T10:11:41;6.13;;;2.57;;
11854;SDS011;5987;53.140;8.904;2023-09-18T10:14:48;8.00;;;2.77;;
11854;SDS011;5987;53.140;8.904;2023-09-18T10:18:03;6.90;;;2.43;;
11854;SDS011;5987;53.140;8.904;2023-09-18T10:21:22;5.27;;;2.77;;
11854;SDS011;5987;53.140;8.904;2023-09-18T10:24:39;4.73;;;2.60;;
11854;SDS011;5987;53.140;8.904;2023-09-18T10:27:45;5.90;;;2.63;;
11854;SDS011;5987;53.140;8.904;2023-09-18T10:30:50;5.70;;;3.40;;
11854;SDS011;5987;53.140;8.904;2023-09-18T10:33:56;6.43;;;2.23;;
11854;SDS011;5987;53.140;8.904;2023-09-18T10:37:03;5.70;;;2.70;;
11854;SDS011;5987;53.140;8.904;2023-09-18T10:40:09;5.47;;;2.43;;
11854;SDS011;5987;53.140;8.904;2023-09-18T10:43:15;5.77;;;2.83;;
11854;SDS011;5987;53.140;8.904;2023-09-18T10:46:20;7.10;;;2.70;;
11854;SDS011;5987;53.140;8.904;2023-09-18T10:49:25;3.87;;;2.80;;
11854;SDS011;5987;53.140;8.904;2023-09-18T10:52:29;6.37;;;2.67;;
11854;SDS011;5987;53.140;8.904;2023-09-18T10:55:34;6.87;;;2.87;;
11854;SDS011;5987;53.140;8.904;2023-09-18T10:58:39;6.83;;;2.53;;
11854;SDS011;5987;53.140;8.904;2023-09-18T11:01:44;5.90;;;2.10;;
11854;SDS011;5987;53.140;8.904;2023-09-18T11:04:50;8.47;;;2.50;;
11854;SDS011;5987;53.140;8.904;2023-09-18T11:11:32;9.47;;;3.00;;
11854;SDS011;5987;53.140;8.904;2023-09-18T11:14:44;5.10;;;2.57;;
11854;SDS011;5987;53.140;8.904;2023-09-18T11:17:58;5.20;;;2.60;;
11854;SDS011;5987;53.140;8.904;2023-09-18T11:21:10;2.50;;;2.30;;
11854;SDS011;5987;53.140;8.904;2023-09-18T11:24:16;6.93;;;2.40;;
11854;SDS011;5987;53.140;8.904;2023-09-18T11:27:25;3.63;;;2.30;;
11854;SDS011;5987;53.140;8.904;2023-09-18T11:30:49;5.07;;;2.27;;
11854;SDS011;5987;53.140;8.904;2023-09-18T11:34:00;7.83;;;2.50;;
11854;SDS011;5987;53.140;8.904;2023-09-18T11:37:19;2.43;;;2.23;;
11854;SDS011;5987;53.140;8.904;2023-09-18T11:40:30;3.50;;;1.90;;
11854;SDS011;5987;53.140;8.904;2023-09-18T11:43:37;5.47;;;2.20;;
11854;SDS011;5987;53.140;8.904;2023-09-18T11:46:45;4.83;;;2.40;;
11854;SDS011;5987;53.140;8.904;2023-09-18T11:49:55;6.63;;;3.03;;
11854;SDS011;5987;53.140;8.904;2023-09-18T11:53:03;5.50;;;3.33;;
11854;SDS011;5987;53.140;8.904;2023-09-18T11:56:10;4.93;;;2.37;;
11854;SDS011;5987;53.140;8.904;2023-09-18T11:59:23;7.30;;;3.17;;
11854;SDS011;5987;53.140;8.904;2023-09-18T12:02:38;9.13;;;2.37;;
11854;SDS011;5987;53.140;8.904;2023-09-18T12:06:03;5.37;;;2.30;;
11854;SDS011;5987;53.140;8.904;2023-09-18T12:09:07;4.13;;;2.40;;
11854;SDS011;5987;53.140;8.904;2023-09-18T12:12:13;6.23;;;2.90;;
11854;SDS011;5987;53.140;8.904;2023-09-18T12:15:37;5.73;;;2.93;;
11854;SDS011;5987;53.140;8.904;2023-09-18T12:18:44;2.80;;;2.60;;
11854;SDS011;5987;53.140;8.904;2023-09-18T12:21:50;3.67;;;2.90;;
11854;SDS011;5987;53.140;8.904;2023-09-18T12:25:07;3.80;;;3.10;;
11854;SDS011;5987;53.140;8.904;2023-09-18T12:28:16;4.57;;;2.37;;
11854;SDS011;5987;53.140;8.904;2023-09-18T12:31:40;3.03;;;2.73;;
11854;SDS011;5987;53.140;8.904;2023-09-18T12:34:47;3.07;;;2.37;;
11854;SDS011;5987;53.140;8.904;2023-09-18T12:37:51;2.63;;;2.43;;
11854;SDS011;5987;53.140;8.904;2023-09-18T12:40:55;3.77;;;2.50;;
11854;SDS011;5987;53.140;8.904;2023-09-18T12:44:07;4.00;;;2.50;;
11854;SDS011;5987;53.140;8.904;2023-09-18T12:47:13;2.40;;;2.20;;
11854;SDS011;5987;53.140;8.904;2023-09-18T12:50:17;4.70;;;2.70;;
11854;SDS011;5987;53.140;8.904;2023-09-18T12:53:21;3.80;;;2.80;;
11854;SDS011;5987;53.140;8.904;2023-09-18T12:56:26;2.63;;;2.43;;
11854;SDS011;5987;53.140;8.904;2023-09-18T12:59:30;3.20;;;2.20;;
11854;SDS011;5987;53.140;8.904;2023-09-18T13:02:36;2.47;;;2.27;;
11854;SDS011;5987;53.140;8.904;2023-09-18T13:05:41;2.80;;;2.53;;
11854;SDS011;5987;53.140;8.904;2023-09-18T13:08:45;3.47;;;2.40;;
11854;SDS011;5987;53.140;8.904;2023-09-18T13:11:53;4.10;;;2.23;;
11854;SDS011;5987;53.140;8.904;2023-09-18T13:14:58;2.50;;;2.30;;
11854;SDS011;5987;53.140;8.904;2023-09-18T13:18:10;3.73;;;2.73;;
11854;SDS011;5987;53.140;8.904;2023-09-18T13:21:14;4.30;;;2.80;;
11854;SDS011;5987;53.140;8.904;2023-09-18T13:24:25;5.10;;;2.37;;
11854;SDS011;5987;53.140;8.904;2023-09-18T13:27:30;3.40;;;2.23;;
11854;SDS011;5987;53.140;8.904;2023-09-18T13:30:35;2.73;;;2.20;;
11854;SDS011;5987;53.140;8.904;2023-09-18T13:33:43;2.50;;;2.30;;
11854;SDS011;5987;53.140;8.904;2023-09-18T13:36:47;4.17;;;2.60;;
11854;SDS011;5987;53.140;8.904;2023-09-18T13:39:51;4.40;;;2.60;;
11854;SDS011;5987;53.140;8.904;2023-09-18T13:42:54;6.10;;;3.20;;
11854;SDS011;5987;53.140;8.904;2023-09-18T13:45:58;3.13;;;2.63;;
11854;SDS011;5987;53.140;8.904;2023-09-18T13:49:07;2.47;;;2.30;;
11854;SDS011;5987;53.140;8.904;2023-09-18T13:52:11;3.23;;;2.27;;
11854;SDS011;5987;53.140;8.904;2023-09-18T13:55:15;3.47;;;2.70;;
11854;SDS011;5987;53.140;8.904;2023-09-18T13:58:19;3.13;;;2.70;;
11854;SDS011;5987;53.140;8.904;2023-09-18T14:01:23;3.03;;;2.57;;
11854;SDS011;5987;53.140;8.904;2023-09-18T14:04:31;3.57;;;2.83;;
11854;SDS011;5987;53.140;8.904;2023-09-18T14:07:35;2.37;;;2.23;;
11854;SDS011;5987;53.140;8.904;2023-09-18T14:10:41;4.43;;;2.60;;
11854;SDS011;5987;53.140;8.904;2023-09-18T14:13:44;2.40;;;2.20;;
11854;SDS011;5987;53.140;8.904;2023-09-18T14:16:49;4.07;;;2.20;;
11854;SDS011;5987;53.140;8.904;2023-09-18T14:19:58;3.23;;;2.47;;
11854;SDS011;5987;53.140;8.904;2023-09-18T14:23:02;2.13;;;2.03;;
11854;SDS011;5987;53.140;8.904;2023-09-18T14:26:08;2.80;;;2.40;;
11854;SDS011;5987;53.140;8.904;2023-09-18T14:29:13;2.67;;;2.40;;
11854;SDS011;5987;53.140;8.904;2023-09-18T14:32:17;2.73;;;2.00;;
11854;SDS011;5987;53.140;8.904;2023-09-18T14:35:22;2.70;;;2.03;;
11854;SDS011;5987;53.140;8.904;2023-09-18T14:38:26;4.17;;;1.97;;
11854;SDS011;5987;53.140;8.904;2023-09-18T14:41:29;3.83;;;1.97;;
11854;SDS011;5987;53.140;8.904;2023-09-18T14:44:33;2.13;;;1.50;;
11854;SDS011;5987;53.140;8.904;2023-09-18T14:47:37;2.10;;;1.60;;
11854;SDS011;5987;53.140;8.904;2023-09-18T14:50:42;2.30;;;1.90;;
11854;SDS011;5987;53.140;8.904;2023-09-18T14:53:46;1.63;;;1.53;;
11854;SDS011;5987;53.140;8.904;2023-09-18T14:56:50;1.80;;;1.60;;
11854;SDS011;5987;53.140;8.904;2023-09-18T14:59:53;1.93;;;1.70;;
11854;SDS011;5987;53.140;8.904;2023-09-18T15:02:57;2.90;;;1.53;;
11854;SDS011;5987;53.140;8.904;2023-09-18T15:06:03;2.60;;;1.97;;
11854;SDS011;5987;53.140;8.904;2023-09-18T15:09:08;3.23;;;1.83;;
11854;SDS011;5987;53.140;8.904;2023-09-18T15:12:12;2.03;;;1.40;;
11854;SDS011;5987;53.140;8.904;2023-09-18T15:15:16;1.97;;;1.60;;
11854;SDS011;5987;53.140;8.904;2023-09-18T15:18:20;2.50;;;1.47;;
11854;SDS011;5987;53.140;8.904;2023-09-18T15:21:26;1.93;;;0.90;;
11854;SDS011;5987;53.140;8.904;2023-09-18T15:24:29;1.60;;;1.37;;
11854;SDS011;5987;53.140;8.904;2023-09-18T15:27:34;1.60;;;1.50;;
11854;SDS011;5987;53.140;8.904;2023-09-18T15:30:38;1.40;;;1.27;;
11854;SDS011;5987;53.140;8.904;2023-09-18T15:33:42;1.73;;;1.63;;
11854;SDS011;5987;53.140;8.904;2023-09-18T15:36:47;4.00;;;1.60;;
11854;SDS011;5987;53.140;8.904;2023-09-18T15:39:51;3.27;;;1.37;;
11854;SDS011;5987;53.140;8.904;2023-09-18T15:42:55;1.30;;;1.20;;
11854;SDS011;5987;53.140;8.904;2023-09-18T15:45:59;1.43;;;1.33;;
11854;SDS011;5987;53.140;8.904;2023-09-18T15:49:03;2.13;;;1.43;;
11854;SDS011;5987;53.140;8.904;2023-09-18T15:52:09;3.03;;;1.30;;
11854;SDS011;5987;53.140;8.904;2023-09-18T15:55:12;2.13;;;1.27;;
11854;SDS011;5987;53.140;8.904;2023-09-18T15:58:16;4.33;;;1.40;;
11854;SDS011;5987;53.140;8.904;2023-09-18T16:01:22;2.13;;;1.23;;
11854;SDS011;5987;53.140;8.904;2023-09-18T16:04:26;3.93;;;1.20;;
11854;SDS011;5987;53.140;8.904;2023-09-18T16:07:31;1.30;;;1.00;;
11854;SDS011;5987;53.140;8.904;2023-09-18T16:10:40;2.47;;;1.40;;
11854;SDS011;5987;53.140;8.904;2023-09-18T16:13:44;1.13;;;1.03;;
11854;SDS011;5987;53.140;8.904;2023-09-18T16:16:48;1.97;;;1.20;;
11854;SDS011;5987;53.140;8.904;2023-09-18T16:19:53;1.97;;;1.30;;
11854;SDS011;5987;53.140;8.904;2023-09-18T16:22:58;2.03;;;1.40;;
11854;SDS011;5987;53.140;8.904;2023-09-18T16:26:02;1.73;;;1.20;;
11854;SDS011;5987;53.140;8.904;2023-09-18T16:29:06;1.67;;;1.30;;
11854;SDS011;5987;53.140;8.904;2023-09-18T16:32:10;2.87;;;1.10;;
11854;SDS011;5987;53.140;8.904;2023-09-18T16:35:14;2.37;;;1.23;;
11854;SDS011;5987;53.140;8.904;2023-09-18T16:38:19;1.90;;;1.63;;
11854;SDS011;5987;53.140;8.904;2023-09-18T16:41:23;2.07;;;1.30;;
11854;SDS011;5987;53.140;8.904;2023-09-18T16:44:26;2.30;;;1.50;;
11854;SDS011;5987;53.140;8.904;2023-09-18T16:47:30;12.33;;;2.70;;
11854;SDS011;5987;53.140;8.904;2023-09-18T16:50:36;1.93;;;1.30;;
11854;SDS011;5987;53.140;8.904;2023-09-18T16:53:42;1.30;;;1.20;;
11854;SDS011;5987;53.140;8.904;2023-09-18T16:56:45;2.20;;;1.57;;
11854;SDS011;5987;53.140;8.904;2023-09-18T16:59:49;1.33;;;1.23;;
11854;SDS011;5987;53.140;8.904;2023-09-18T17:02:56;3.50;;;1.40;;
11854;SDS011;5987;53.140;8.904;2023-09-18T17:06:00;1.80;;;1.23;;
11854;SDS011;5987;53.140;8.904;2023-09-18T17:09:06;1.50;;;1.37;;
11854;SDS011;5987;53.140;8.904;2023-09-18T17:12:11;1.77;;;1.33;;
11854;SDS011;5987;53.140;8.904;2023-09-18T17:15:50;1.70;;;1.33;;
11854;SDS011;5987;53.140;8.904;2023-09-18T17:18:54;1.47;;;1.30;;
11854;SDS011;5987;53.140;8.904;2023-09-18T17:21:58;2.47;;;1.17;;
11854;SDS011;5987;53.140;8.904;2023-09-18T17:25:07;3.80;;;2.13;;
11854;SDS011;5987;53.140;8.904;2023-09-18T17:28:12;2.73;;;1.30;;
11854;SDS011;5987;53.140;8.904;2023-09-18T17:31:16;3.37;;;1.53;;
11854;SDS011;5987;53.140;8.904;2023-09-18T17:34:21;4.00;;;1.70;;
11854;SDS011;5987;53.140;8.904;2023-09-18T17:37:25;5.17;;;1.90;;
11854;SDS011;5987;53.140;8.904;2023-09-18T17:40:30;2.33;;;1.53;;
11854;SDS011;5987;53.140;8.904;2023-09-18T17:43:34;1.50;;;1.40;;
11854;SDS011;5987;53.140;8.904;2023-09-18T17:46:38;2.97;;;1.27;;
11854;SDS011;5987;53.140;8.904;2023-09-18T17:49:42;3.30;;;1.70;;
11854;SDS011;5987;53.140;8.904;2023-09-18T17:52:46;3.97;;;1.57;;
11854;SDS011;5987;53.140;8.904;2023-09-18T17:55:52;3.37;;;1.77;;
11854;SDS011;5987;53.140;8.904;2023-09-18T17:58:56;4.40;;;1.47;;
11854;SDS011;5987;53.140;8.904;2023-09-18T18:02:00;2.37;;;1.33;;
11854;SDS011;5987;53.140;8.904;2023-09-18T18:05:05;2.73;;;1.67;;
11854;SDS011;5987;53.140;8.904;2023-09-18T18:08:10;2.63;;;1.40;;
11854;SDS011;5987;53.140;8.904;2023-09-18T18:11:15;2.20;;;1.43;;
11854;SDS011;5987;53.140;8.904;2023-09-18T18:14:18;4.77;;;2.17;;
11854;SDS011;5987;53.140;8.904;2023-09-18T18:17:23;3.57;;;2.77;;
11854;SDS011;5987;53.140;8.904;2023-09-18T18:20:26;1.93;;;1.63;;
11854;SDS011;5987;53.140;8.904;2023-09-18T18:23:30;4.60;;;1.80;;
11854;SDS011;5987;53.140;8.904;2023-09-18T18:26:35;3.53;;;1.90;;
11854;SDS011;5987;53.140;8.904;2023-09-18T18:29:39;4.27;;;1.57;;
11854;SDS011;5987;53.140;8.904;2023-09-18T18:32:43;2.27;;;1.67;;
11854;SDS011;5987;53.140;8.904;2023-09-18T18:35:48;3.00;;;1.60;;
11854;SDS011;5987;53.140;8.904;2023-09-18T18:38:51;3.83;;;2.20;;
11854;SDS011;5987;53.140;8.904;2023-09-18T18:41:57;1.90;;;1.50;;
11854;SDS011;5987;53.140;8.904;2023-09-18T18:45:00;4.33;;;2.00;;
11854;SDS011;5987;53.140;8.904;2023-09-18T18:48:04;2.63;;;1.50;;
11854;SDS011;5987;53.140;8.904;2023-09-18T18:51:09;3.07;;;1.60;;
11854;SDS011;5987;53.140;8.904;2023-09-18T18:54:20;3.33;;;1.73;;
11854;SDS011;5987;53.140;8.904;2023-09-18T18:57:25;1.93;;;1.30;;
11854;SDS011;5987;53.140;8.904;2023-09-18T19:00:29;3.90;;;1.37;;